createdAt,value
2022-11-01T00:01:20.512Z,27.80
2022-11-01T00:04:08.807Z,31.20
2022-11-01T00:06:55.817Z,28.30
2022-11-01T00:09:44.002Z,27.70
2022-11-01T00:12:32.429Z,29.23
2022-11-01T00:15:18.961Z,32.27
2022-11-01T00:18:05.633Z,30.70
2022-11-01T00:20:52.428Z,30.67
2022-11-01T00:23:39.697Z,27.67
2022-11-01T00:26:27.799Z,27.40
2022-11-01T00:29:14.803Z,27.80
2022-11-01T00:32:01.534Z,25.10
2022-11-01T00:34:48.209Z,27.30
2022-11-01T00:37:34.701Z,28.67
2022-11-01T00:40:21.183Z,27.33
2022-11-01T00:43:09.050Z,27.17
2022-11-01T00:45:55.805Z,23.97
2022-11-01T00:48:42.281Z,22.37
2022-11-01T00:51:28.754Z,25.90
2022-11-01T00:54:15.148Z,25.00
2022-11-01T00:57:01.739Z,27.23
2022-11-01T00:59:49.451Z,24.43
2022-11-01T01:02:36.067Z,30.53
2022-11-01T01:05:23.341Z,20.17
2022-11-01T01:08:10.105Z,26.03
2022-11-01T01:10:56.557Z,22.17
2022-11-01T01:13:43.365Z,19.17
2022-11-01T01:16:31.489Z,23.20
2022-11-01T01:19:18.230Z,24.30
2022-11-01T01:22:05.279Z,23.03
2022-11-01T01:24:51.735Z,21.67
2022-11-01T01:27:38.213Z,18.90
2022-11-01T01:30:25.266Z,21.13
2022-11-01T01:33:13.186Z,19.83
2022-11-01T01:36:01.503Z,21.43
2022-11-01T01:38:48.295Z,19.73
2022-11-01T01:42:06.655Z,18.07
2022-11-01T01:45:17.588Z,23.97
2022-11-01T01:48:13.829Z,16.30
2022-11-01T01:51:05.151Z,20.83
2022-11-01T01:53:54.413Z,18.87
2022-11-01T01:56:41.263Z,15.40
2022-11-01T01:59:28.659Z,19.07
2022-11-01T02:02:15.977Z,13.87
2022-11-01T02:05:11.635Z,14.73
2022-11-01T02:08:00.368Z,12.73
2022-11-01T02:10:47.558Z,14.13
2022-11-01T02:13:34.778Z,19.50
2022-11-01T02:16:48.138Z,15.60
2022-11-01T02:20:12.032Z,14.07
2022-11-01T02:23:40.222Z,13.97
2022-11-01T02:26:51.007Z,16.80
2022-11-01T02:30:05.057Z,11.73
2022-11-01T02:33:06.254Z,17.00
2022-11-01T02:36:01.150Z,13.93
2022-11-01T02:38:52.263Z,14.17
2022-11-01T02:41:45.920Z,14.33
2022-11-01T02:44:37.189Z,18.33
2022-11-01T02:47:26.228Z,13.80
2022-11-01T02:50:14.071Z,17.00
2022-11-01T02:53:01.467Z,8.97
2022-11-01T02:55:48.244Z,12.47
2022-11-01T02:58:34.893Z,14.47
2022-11-01T03:01:25.974Z,13.93
2022-11-01T03:04:12.706Z,12.83
2022-11-01T03:07:05.899Z,11.40
2022-11-01T03:09:52.720Z,10.17
2022-11-01T03:12:50.664Z,9.70
2022-11-01T03:15:45.511Z,10.20
2022-11-01T03:18:36.109Z,14.53
2022-11-01T03:21:26.404Z,13.27
2022-11-01T03:24:23.527Z,11.60
2022-11-01T03:27:14.798Z,11.17
2022-11-01T03:30:05.627Z,12.10
2022-11-01T03:32:56.866Z,10.90
2022-11-01T03:35:49.833Z,12.77
2022-11-01T03:38:41.108Z,11.13
2022-11-01T03:41:34.047Z,14.47
2022-11-01T03:44:21.406Z,13.40
2022-11-01T03:47:08.919Z,9.00
2022-11-01T03:50:14.582Z,11.97
2022-11-01T03:53:01.304Z,9.20
2022-11-01T03:55:48.063Z,11.23
2022-11-01T03:58:44.237Z,11.37
2022-11-01T04:01:30.658Z,12.50
2022-11-01T04:04:17.746Z,12.17
2022-11-01T04:07:04.319Z,15.17
2022-11-01T04:09:50.698Z,13.70
2022-11-01T04:12:37.330Z,10.70
2022-11-01T04:15:44.170Z,12.40
2022-11-01T04:18:48.028Z,16.43
2022-11-01T04:21:34.696Z,17.00
2022-11-01T04:24:21.614Z,13.73
2022-11-01T04:27:08.161Z,11.80
2022-11-01T04:29:54.675Z,12.73
2022-11-01T04:32:45.782Z,11.33
2022-11-01T04:35:32.600Z,10.77
2022-11-01T04:38:19.134Z,11.40
2022-11-01T04:41:05.930Z,9.30
2022-11-01T04:43:55.044Z,11.80
2022-11-01T04:46:41.616Z,10.33
2022-11-01T04:49:29.362Z,9.50
2022-11-01T04:52:16.157Z,13.40
2022-11-01T04:55:02.793Z,8.43
2022-11-01T04:57:49.225Z,9.40
2022-11-01T05:00:35.883Z,15.47
2022-11-01T05:03:22.668Z,10.23
2022-11-01T05:06:10.594Z,9.43
2022-11-01T05:08:57.297Z,10.30
2022-11-01T05:11:43.958Z,11.57
2022-11-01T05:14:30.290Z,9.52
2022-11-01T05:17:16.760Z,10.60
2022-11-01T05:20:03.337Z,9.10
2022-11-01T05:22:51.367Z,11.13
2022-11-01T05:25:38.400Z,9.40
2022-11-01T05:28:25.109Z,9.60
2022-11-01T05:31:11.680Z,9.73
2022-11-01T05:33:58.134Z,11.93
2022-11-01T05:36:44.714Z,10.77
2022-11-01T05:39:32.466Z,10.20
2022-11-01T05:42:19.082Z,8.13
2022-11-01T05:45:06.782Z,9.83
2022-11-01T05:47:53.223Z,9.97
2022-11-01T05:50:39.614Z,9.67
2022-11-01T05:53:26.181Z,9.63
2022-11-01T05:56:14.345Z,9.17
2022-11-01T05:59:00.730Z,8.87
2022-11-01T06:01:47.370Z,9.37
2022-11-01T06:04:34.363Z,10.97
2022-11-01T06:07:20.815Z,9.70
2022-11-01T06:10:08.377Z,9.33
2022-11-01T06:12:56.291Z,10.60
2022-11-01T06:15:43.042Z,8.10
2022-11-01T06:18:29.379Z,13.03
2022-11-01T06:21:15.817Z,9.30
2022-11-01T06:24:02.275Z,11.37
2022-11-01T06:26:48.825Z,11.57
2022-11-01T06:29:36.760Z,9.27
2022-11-01T06:32:23.638Z,9.87
2022-11-01T06:35:11.877Z,8.73
2022-11-01T06:38:03.186Z,9.13
2022-11-01T06:40:49.637Z,8.57
2022-11-01T06:43:36.206Z,10.07
2022-11-01T06:46:24.022Z,11.33
2022-11-01T06:49:14.867Z,8.70
2022-11-01T06:52:05.566Z,9.60
2022-11-01T06:54:54.380Z,10.10
2022-11-01T06:57:41.010Z,9.87
2022-11-01T07:00:29.518Z,8.20
2022-11-01T07:03:18.131Z,7.57
2022-11-01T07:06:04.792Z,6.83
2022-11-01T07:08:51.437Z,6.87
2022-11-01T07:11:38.330Z,8.70
2022-11-01T07:14:24.857Z,6.60
2022-11-01T07:17:11.629Z,7.07
2022-11-01T07:19:59.410Z,11.57
2022-11-01T07:22:46.147Z,7.60
2022-11-01T07:25:33.298Z,9.07
2022-11-01T07:28:20.055Z,11.83
2022-11-01T07:31:07.377Z,6.97
2022-11-01T07:33:55.158Z,3.83
2022-11-01T07:36:43.051Z,4.47
2022-11-01T07:39:29.886Z,9.60
2022-11-01T07:42:16.554Z,8.23
2022-11-01T07:45:02.862Z,4.60
2022-11-01T07:47:49.588Z,5.40
2022-11-01T07:50:36.287Z,5.20
2022-11-01T07:53:24.135Z,6.40
2022-11-01T07:56:11.022Z,5.50
2022-11-01T07:58:57.578Z,7.13
2022-11-01T08:01:44.201Z,4.77
2022-11-01T08:04:31.024Z,6.20
2022-11-01T08:07:17.974Z,12.57
2022-11-01T08:10:07.218Z,2.93
2022-11-01T08:12:54.057Z,7.57
2022-11-01T08:15:40.678Z,5.07
2022-11-01T08:18:27.113Z,6.93
2022-11-01T08:21:18.658Z,7.60
2022-11-01T08:24:05.741Z,6.23
2022-11-01T08:26:54.468Z,5.43
2022-11-01T08:29:41.375Z,6.83
2022-11-01T08:32:28.048Z,6.50
2022-11-01T08:35:14.789Z,6.63
2022-11-01T08:38:03.248Z,10.10
2022-11-01T08:40:49.986Z,4.30
2022-11-01T08:43:40.528Z,6.17
2022-11-01T08:46:27.539Z,7.33
2022-11-01T08:49:14.965Z,9.43
2022-11-01T08:52:01.505Z,3.97
2022-11-01T08:54:47.958Z,3.40
2022-11-01T08:57:34.720Z,3.43
2022-11-01T09:00:22.804Z,5.90
2022-11-01T09:03:09.438Z,5.20
2022-11-01T09:05:57.954Z,6.03
2022-11-01T09:08:44.409Z,5.97
2022-11-01T09:11:31.617Z,4.73
2022-11-01T09:14:18.119Z,3.30
2022-11-01T09:17:05.987Z,3.20
2022-11-01T09:19:52.852Z,5.40
2022-11-01T09:22:39.354Z,2.53
2022-11-01T09:25:26.503Z,2.90
2022-11-01T09:28:12.967Z,2.43
2022-11-01T09:31:19.631Z,3.30
2022-11-01T09:34:08.943Z,1.87
2022-11-01T09:36:55.879Z,2.77
2022-11-01T09:39:42.604Z,1.93
2022-11-01T09:42:34.417Z,4.40
2022-11-01T09:45:23.685Z,5.97
2022-11-01T09:48:13.160Z,1.10
2022-11-01T09:51:03.650Z,1.97
2022-11-01T09:53:52.118Z,2.30
2022-11-01T09:56:43.024Z,5.07
2022-11-01T09:59:36.394Z,2.30
2022-11-01T10:02:38.113Z,3.33
2022-11-01T10:05:35.052Z,2.90
2022-11-01T10:08:35.099Z,6.80
2022-11-01T10:11:37.804Z,4.03
2022-11-01T10:14:41.223Z,1.07
2022-11-01T10:17:49.437Z,3.10
2022-11-01T10:20:40.122Z,4.23
2022-11-01T10:23:41.268Z,3.53
2022-11-01T10:26:30.115Z,5.67
2022-11-01T10:29:22.822Z,4.20
2022-11-01T10:32:20.769Z,3.77
2022-11-01T10:35:16.271Z,7.07
2022-11-01T10:38:24.976Z,5.30
2022-11-01T10:41:23.297Z,6.87
2022-11-01T10:44:16.122Z,5.07
2022-11-01T10:47:08.299Z,5.63
2022-11-01T10:50:06.134Z,4.90
2022-11-01T10:52:57.379Z,2.73
2022-11-01T10:55:48.126Z,10.50
2022-11-01T10:58:42.483Z,4.43
2022-11-01T11:01:33.029Z,3.60
2022-11-01T11:04:23.678Z,3.40
2022-11-01T11:07:16.497Z,6.03
2022-11-01T11:10:21.035Z,4.80
2022-11-01T11:13:11.510Z,6.87
2022-11-01T11:16:02.296Z,8.03
2022-11-01T11:19:02.357Z,7.57
2022-11-01T11:21:50.921Z,5.43
2022-11-01T11:24:39.456Z,5.57
2022-11-01T11:27:30.093Z,6.70
2022-11-01T11:30:28.895Z,5.17
2022-11-01T11:33:19.161Z,6.23
2022-11-01T11:36:07.242Z,5.87
2022-11-01T11:38:55.685Z,4.00
2022-11-01T11:41:44.363Z,5.03
2022-11-01T11:44:41.941Z,3.80
2022-11-01T11:47:35.716Z,3.80
2022-11-01T11:50:33.390Z,5.20
2022-11-01T11:53:24.366Z,5.87
2022-11-01T11:56:12.537Z,6.47
2022-11-01T11:59:08.329Z,8.73
2022-11-01T12:02:00.881Z,7.13
2022-11-01T12:04:52.811Z,6.43
2022-11-01T12:07:48.899Z,12.33
2022-11-01T12:10:38.126Z,5.83
2022-11-01T12:13:28.362Z,7.73
2022-11-01T12:16:20.951Z,4.60
2022-11-01T12:19:22.662Z,10.97
2022-11-01T12:22:11.795Z,7.07
2022-11-01T12:25:03.749Z,5.73
2022-11-01T12:27:57.943Z,5.67
2022-11-01T12:30:47.117Z,7.87
2022-11-01T12:33:38.441Z,6.00
2022-11-01T12:36:31.329Z,6.67
2022-11-01T12:39:32.790Z,8.30
2022-11-01T12:42:28.936Z,6.07
2022-11-01T12:45:24.360Z,6.07
2022-11-01T12:48:15.078Z,5.80
2022-11-01T12:51:05.258Z,4.93
2022-11-01T12:53:57.071Z,5.33
2022-11-01T12:56:43.464Z,10.37
2022-11-01T12:59:35.220Z,6.13
2022-11-01T13:02:38.743Z,6.87
2022-11-01T13:05:34.894Z,7.27
2022-11-01T13:08:33.097Z,13.20
2022-11-01T13:11:26.242Z,10.27
2022-11-01T13:14:28.667Z,9.33
2022-11-01T13:17:30.987Z,9.67
2022-11-01T13:20:45.195Z,9.30
2022-11-01T13:23:37.354Z,4.20
2022-11-01T13:26:27.437Z,5.43
2022-11-01T13:29:18.565Z,12.23
2022-11-01T13:32:11.231Z,6.83
2022-11-01T13:35:25.547Z,13.00
2022-11-01T13:38:21.709Z,6.77
2022-11-01T13:41:19.695Z,11.03
2022-11-01T13:44:13.398Z,9.77
2022-11-01T13:47:19.314Z,11.37
2022-11-01T13:50:38.521Z,8.17
2022-11-01T13:53:32.875Z,10.60
2022-11-01T13:56:26.119Z,9.23
2022-11-01T13:59:28.233Z,8.00
2022-11-01T14:02:53.275Z,5.33
2022-11-01T14:05:40.445Z,6.37
2022-11-01T14:08:38.819Z,6.80
2022-11-01T14:11:46.406Z,5.67
2022-11-01T14:14:52.539Z,6.93
2022-11-01T14:17:51.556Z,5.40
2022-11-01T14:20:46.855Z,12.03
2022-11-01T14:24:02.855Z,8.00
2022-11-01T14:27:14.416Z,8.30
2022-11-01T14:30:01.734Z,4.23
2022-11-01T14:32:54.596Z,5.63
2022-11-01T14:35:45.557Z,7.87
2022-11-01T14:38:38.158Z,7.30
2022-11-01T14:41:28.766Z,4.13
2022-11-01T14:44:20.374Z,9.20
2022-11-01T14:47:19.919Z,7.87
2022-11-01T14:50:15.387Z,6.93
2022-11-01T14:53:09.868Z,6.50
2022-11-01T14:56:08.183Z,5.83
2022-11-01T14:59:12.989Z,7.33
2022-11-01T15:02:03.477Z,8.93
2022-11-01T15:04:52.520Z,7.90
2022-11-01T15:07:40.401Z,9.20
2022-11-01T15:10:27.768Z,5.97
2022-11-01T15:13:17.308Z,7.40
2022-11-01T15:16:13.892Z,10.80
2022-11-01T15:19:03.880Z,7.20
2022-11-01T15:21:50.900Z,7.50
2022-11-01T15:24:37.515Z,4.80
2022-11-01T15:27:29.947Z,3.80
2022-11-01T15:30:21.263Z,6.90
2022-11-01T15:33:24.027Z,4.03
2022-11-01T15:36:22.146Z,8.90
2022-11-01T15:39:19.201Z,8.60
2022-11-01T15:42:15.388Z,6.80
2022-11-01T15:45:19.514Z,7.97
2022-11-01T15:48:10.749Z,6.70
2022-11-01T15:51:02.107Z,8.00
2022-11-01T15:53:51.027Z,7.40
2022-11-01T15:56:42.569Z,6.40
2022-11-01T15:59:33.202Z,8.23
2022-11-01T16:02:24.528Z,9.00
2022-11-01T16:05:14.562Z,4.17
2022-11-01T16:08:02.915Z,5.67
2022-11-01T16:10:49.714Z,5.03
2022-11-01T16:13:36.455Z,8.53
2022-11-01T16:16:23.117Z,4.10
2022-11-01T16:19:28.247Z,8.93
2022-11-01T16:22:35.943Z,12.60
2022-11-01T16:25:26.007Z,12.77
2022-11-01T16:28:31.503Z,6.67
2022-11-01T16:31:22.716Z,7.07
2022-11-01T16:34:24.505Z,10.10
2022-11-01T16:37:20.079Z,6.67
2022-11-01T16:40:26.848Z,8.13
2022-11-01T16:43:13.550Z,7.50
2022-11-01T16:46:00.869Z,13.77
2022-11-01T16:48:53.988Z,7.93
2022-11-01T16:51:40.439Z,11.57
2022-11-01T16:54:27.303Z,8.23
2022-11-01T16:57:25.900Z,10.83
2022-11-01T17:00:14.750Z,3.70
2022-11-01T17:03:02.013Z,7.13
2022-11-01T17:05:53.770Z,7.40
2022-11-01T17:08:42.731Z,12.87
2022-11-01T17:11:29.170Z,10.83
2022-11-01T17:14:17.669Z,3.90
2022-11-01T17:17:08.674Z,7.17
2022-11-01T17:20:00.027Z,6.77
2022-11-01T17:22:50.915Z,6.30
2022-11-01T17:25:37.693Z,7.27
2022-11-01T17:28:25.993Z,5.30
2022-11-01T17:31:13.787Z,5.73
2022-11-01T17:34:00.334Z,5.07
2022-11-01T17:36:49.510Z,10.87
2022-11-01T17:39:37.554Z,8.00
2022-11-01T17:42:23.959Z,15.53
2022-11-01T17:45:11.570Z,12.80
2022-11-01T17:47:59.701Z,16.30
2022-11-01T17:50:46.711Z,13.40
2022-11-01T17:53:33.157Z,10.03
2022-11-01T17:56:19.813Z,6.87
2022-11-01T17:59:06.348Z,15.33
2022-11-01T18:01:52.866Z,11.17
2022-11-01T18:04:41.083Z,8.13
2022-11-01T18:07:35.915Z,5.87
2022-11-01T18:10:28.198Z,9.10
2022-11-01T18:13:32.303Z,9.60
2022-11-01T18:16:28.666Z,8.43
2022-11-01T18:19:54.151Z,6.83
2022-11-01T18:22:49.579Z,6.27
2022-11-01T18:25:41.866Z,8.23
2022-11-01T18:28:30.278Z,9.63
2022-11-01T18:31:23.533Z,7.43
2022-11-01T18:34:19.293Z,11.00
2022-11-01T18:37:19.546Z,6.00
2022-11-01T18:40:14.983Z,7.47
2022-11-01T18:43:02.123Z,12.13
2022-11-01T18:46:18.745Z,7.80
2022-11-01T18:48:59.977Z,8.90
2022-11-01T18:51:47.709Z,4.43
2022-11-01T18:54:35.461Z,4.30
2022-11-01T18:57:24.713Z,5.37
2022-11-01T19:00:15.746Z,4.70
2022-11-01T19:03:02.741Z,10.77
2022-11-01T19:05:49.531Z,6.60
2022-11-01T19:08:36.229Z,8.07
2022-11-01T19:11:23.321Z,6.43
2022-11-01T19:14:16.950Z,6.93
2022-11-01T19:17:04.626Z,3.37
2022-11-01T19:19:52.612Z,9.03
2022-11-01T19:22:41.689Z,5.17
2022-11-01T19:25:31.983Z,4.47
2022-11-01T19:28:25.839Z,4.60
2022-11-01T19:31:24.657Z,2.87
2022-11-01T19:34:17.894Z,4.00
2022-11-01T19:37:14.255Z,7.60
2022-11-01T19:40:01.058Z,2.97
2022-11-01T19:42:47.552Z,7.53
2022-11-01T19:45:34.596Z,5.13
2022-11-01T19:48:24.789Z,4.87
2022-11-01T19:51:17.776Z,6.70
2022-11-01T19:54:11.020Z,4.20
2022-11-01T19:57:00.248Z,3.83
2022-11-01T19:59:48.092Z,6.10
2022-11-01T20:02:34.826Z,7.63
2022-11-01T20:05:28.746Z,3.70
2022-11-01T20:08:21.516Z,2.87
2022-11-01T20:11:08.634Z,1.87
2022-11-01T20:13:55.275Z,5.67
2022-11-01T20:16:41.847Z,5.27
2022-11-01T20:19:28.599Z,4.50
2022-11-01T20:22:16.521Z,4.57
2022-11-01T20:25:03.054Z,3.73
2022-11-01T20:27:49.529Z,2.53
2022-11-01T20:30:36.094Z,5.57
2022-11-01T20:33:22.955Z,3.87
2022-11-01T20:36:11.346Z,7.07
2022-11-01T20:38:59.745Z,5.97
2022-11-01T20:41:46.498Z,2.07
2022-11-01T20:44:33.307Z,6.87
2022-11-01T20:47:19.805Z,6.67
2022-11-01T20:50:08.159Z,9.30
2022-11-01T20:52:54.565Z,4.77
2022-11-01T20:55:42.764Z,9.60
2022-11-01T20:58:30.084Z,4.73
2022-11-01T21:01:18.047Z,2.90
2022-11-01T21:04:12.106Z,6.43
2022-11-01T21:06:58.610Z,6.00
2022-11-01T21:09:47.864Z,4.40
2022-11-01T21:12:44.745Z,6.27
2022-11-01T21:15:36.229Z,6.17
2022-11-01T21:18:45.845Z,9.07
2022-11-01T21:21:47.045Z,4.47
2022-11-01T21:24:36.251Z,3.43
2022-11-01T21:27:31.243Z,3.33
2022-11-01T21:30:21.319Z,5.30
2022-11-01T21:33:28.917Z,3.90
2022-11-01T21:36:22.933Z,7.23
2022-11-01T21:39:15.126Z,3.30
2022-11-01T21:42:05.616Z,6.13
2022-11-01T21:44:52.237Z,8.10
2022-11-01T21:47:45.446Z,5.87
2022-11-01T21:50:32.214Z,7.87
2022-11-01T21:53:18.587Z,5.23
2022-11-01T21:56:05.642Z,5.50
2022-11-01T21:58:52.082Z,5.70
2022-11-01T22:01:39.461Z,5.00
2022-11-01T22:04:29.038Z,5.60
2022-11-01T22:07:15.695Z,4.80
2022-11-01T22:10:02.135Z,8.00
2022-11-01T22:12:48.733Z,4.37
2022-11-01T22:15:35.653Z,5.43
2022-11-01T22:18:25.074Z,7.30
2022-11-01T22:21:13.377Z,8.67
2022-11-01T22:24:00.691Z,6.97
2022-11-01T22:26:47.225Z,5.93
2022-11-01T22:29:33.640Z,7.97
2022-11-01T22:32:20.145Z,4.87
2022-11-01T22:35:07.598Z,5.10
2022-11-01T22:37:55.554Z,6.43
2022-11-01T22:40:42.411Z,6.70
2022-11-01T22:43:29.884Z,7.87
2022-11-01T22:46:21.574Z,4.87
2022-11-01T22:49:14.890Z,6.73
2022-11-01T22:52:05.156Z,5.07
2022-11-01T22:54:55.944Z,4.80
2022-11-01T22:57:47.811Z,9.50
2022-11-01T23:00:37.175Z,6.37
2022-11-01T23:03:27.385Z,7.93
2022-11-01T23:06:34.432Z,3.23
2022-11-01T23:09:22.066Z,3.87
2022-11-01T23:12:41.144Z,9.03
2022-11-01T23:15:30.333Z,6.87
2022-11-01T23:18:23.326Z,6.73
2022-11-01T23:21:10.745Z,9.43
2022-11-01T23:23:57.337Z,10.00
2022-11-01T23:26:44.186Z,11.00
2022-11-01T23:29:32.137Z,6.40
2022-11-01T23:32:18.951Z,5.70
2022-11-01T23:35:13.810Z,10.00
2022-11-01T23:38:00.350Z,9.87
2022-11-01T23:40:46.995Z,3.53
2022-11-01T23:43:37.425Z,7.77
2022-11-01T23:46:26.724Z,4.20
2022-11-01T23:49:17.938Z,9.30
2022-11-01T23:52:13.214Z,6.77
2022-11-01T23:54:59.986Z,4.63
2022-11-01T23:57:46.877Z,5.60
